Time;durP1;ratioP1;P1;durP2;ratioP2;P2;SDS_P1;SDS_P2;PMS_P1;PMS_P2;Temp;Humidity;BMP_temperature;BMP_pressure;BME280_temperature;BME280_humidity;BME280_pressure;Samples;Min_cycle;Max_cycle;Signal;HPM_P1;HPM_P2
2023/02/21 02:15:41;;;;;;;;;;;;;;;11.30;70.91;98623.44;5019759;28;20506;-58
2023/02/21 02:18:36;;;;;;;;;;;;;;;11.29;71.14;98622.59;5020733;28;20516;-58
2023/02/21 02:21:20;;;;;;;;;;;;;;;11.36;70.32;98628.44;5008841;28;19932;-57
2023/02/21 02:24:05;;;;;;;;;;;;;;;11.32;70.63;98626.81;5022058;28;20308;-58
2023/02/21 02:26:33;;;;;;;;;;;;;;;11.21;72.72;98615.94;5002634;28;20363;-59
2023/02/21 02:29:23;;;;;;;;;;;;;;;11.20;72.95;98621.97;5039466;28;20016;-57
2023/02/21 02:32:09;;;;;;;;;;;;;;;11.10;74.40;98623.03;5021789;28;20230;-58
2023/02/21 02:34:53;;;;;;;;;;;;;;;11.08;75.64;98625.63;5023163;28;19924;-59
2023/02/21 02:37:37;;;;;;;;;;;;;;;11.11;75.00;98629.84;5019729;28;19937;-59
2023/02/21 02:40:02;;;;;;;;;;;;;;;11.03;76.28;98626.63;5038288;28;19925;-57
2023/02/21 02:42:38;;;;;;;;;;;;;;;10.96;77.35;98618.19;5020626;28;20506;-58
2023/02/21 02:45:13;;;;;;;;;;;;;;;10.89;77.13;98624.31;5020343;28;20032;-59
2023/02/21 02:47:40;;;;;;;;;;;;;;;10.90;77.49;98628.59;4994528;28;20016;-59
2023/02/21 02:50:06;;;;;;;;;;;;;;;10.73;79.16;98625.50;5020482;28;19931;-58
2023/02/21 02:52:33;;;;;;;;;;;;;;;10.70;80.17;98618.72;5005733;28;20083;-59
2023/02/21 02:55:00;;;;;;;;;;;;;;;10.64;80.92;98612.88;5006360;28;19928;-59
2023/02/21 02:57:28;;;;;;;;;;;;;;;10.52;82.28;98616.53;5014854;28;19936;-58
2023/02/21 02:59:54;;;;;;;;;;;;;;;10.45;82.41;98627.75;5002141;28;19972;-57
2023/02/21 03:02:34;;;;;;;;;;;;;;;10.59;81.26;98624.94;5007909;28;19979;-58
2023/02/21 03:05:29;;;;;;;;;;;;;;;10.48;82.77;98623.41;4998225;28;19972;-58
2023/02/21 03:08:03;;;;;;;;;;;;;;;10.54;83.01;98617.31;5006876;28;20214;-58
2023/02/21 03:10:48;;;;;;;;;;;;;;;10.52;82.93;98614.78;5001006;28;19969;-58
2023/02/21 03:13:19;;;;;;;;;;;;;;;10.57;82.36;98616.41;5031570;28;19952;-57
2023/02/21 03:15:46;;;;;;;;;;;;;;;10.45;83.81;98626.03;5012646;28;19933;-59
2023/02/21 03:18:30;;;;;;;;;;;;;;;10.45;84.38;98623.47;5003845;28;19932;-58
2023/02/21 03:20:58;;;;;;;;;;;;;;;10.35;85.19;98616.00;5036984;28;20336;-57
2023/02/21 03:23:26;;;;;;;;;;;;;;;10.29;85.25;98616.94;5022511;28;19925;-58
2023/02/21 03:25:55;;;;;;;;;;;;;;;10.36;83.76;98615.09;5035659;28;19979;-58
2023/02/21 03:28:21;;;;;;;;;;;;;;;10.34;83.81;98611.72;5025073;28;20384;-56
2023/02/21 03:30:50;;;;;;;;;;;;;;;10.40;82.42;98615.00;5012716;28;19961;-57
2023/02/21 03:33:17;;;;;;;;;;;;;;;10.51;80.46;98607.13;5005246;28;19961;-56
2023/02/21 03:35:42;;;;;;;;;;;;;;;10.58;79.85;98613.81;5023148;28;19928;-57
2023/02/21 03:38:09;;;;;;;;;;;;;;;10.49;80.82;98608.88;5005852;28;19932;-57
2023/02/21 03:40:34;;;;;;;;;;;;;;;10.46;80.43;98620.03;5003489;28;19929;-58
2023/02/21 03:43:04;;;;;;;;;;;;;;;10.42;79.80;98615.00;5020469;28;20043;-56
2023/02/21 03:45:33;;;;;;;;;;;;;;;10.37;81.14;98609.09;5013039;28;19925;-57
2023/02/21 03:48:17;;;;;;;;;;;;;;;10.20;83.15;98609.41;4996677;28;19928;-58
2023/02/21 03:50:43;;;;;;;;;;;;;;;10.27;81.73;98602.47;5034742;28;19975;-58
2023/02/21 03:53:09;;;;;;;;;;;;;;;10.39;78.83;98604.81;5016272;28;20339;-57
2023/02/21 03:55:37;;;;;;;;;;;;;;;10.38;77.95;98605.66;5035008;28;19929;-57
2023/02/21 03:58:09;;;;;;;;;;;;;;;10.39;77.15;98604.81;5013090;28;20038;-60
2023/02/21 04:00:36;;;;;;;;;;;;;;;10.45;76.11;98613.22;4992695;28;19936;-57
2023/02/21 04:03:01;;;;;;;;;;;;;;;10.49;74.76;98611.44;5000861;28;19925;-58
2023/02/21 04:05:33;;;;;;;;;;;;;;;10.64;72.89;98603.47;5018886;28;20374;-58
2023/02/21 04:07:59;;;;;;;;;;;;;;;10.61;73.27;98605.25;5019312;28;19925;-58
2023/02/21 04:10:25;;;;;;;;;;;;;;;10.71;71.89;98619.56;5001874;28;19931;-58
2023/02/21 04:12:51;;;;;;;;;;;;;;;10.75;71.69;98610.94;5017385;28;20453;-58
2023/02/21 04:15:16;;;;;;;;;;;;;;;10.66;73.06;98611.09;5006996;28;19929;-58
2023/02/21 04:17:43;;;;;;;;;;;;;;;10.68;72.67;98614.50;5018309;28;20424;-60
2023/02/21 04:20:08;;;;;;;;;;;;;;;10.68;73.49;98609.38;5018259;28;20032;-58
2023/02/21 04:22:39;;;;;;;;;;;;;;;10.65;73.71;98610.25;5018375;28;20315;-57
2023/02/21 04:25:05;;;;;;;;;;;;;;;10.66;73.60;98601.69;5019999;28;19929;-58
2023/02/21 04:27:38;;;;;;;;;;;;;;;10.63;74.12;98596.63;5002782;28;19925;-60
2023/02/21 04:30:03;;;;;;;;;;;;;;;10.57;74.31;98601.88;5036140;28;19991;-59
2023/02/21 04:32:29;;;;;;;;;;;;;;;10.63;75.35;98596.63;5016236;28;19929;-58
2023/02/21 04:34:55;;;;;;;;;;;;;;;10.57;76.27;98590.78;4996340;28;20141;-59
2023/02/21 04:37:21;;;;;;;;;;;;;;;10.64;75.90;98592.34;5035880;28;19931;-59
2023/02/21 04:39:47;;;;;;;;;;;;;;;10.57;77.22;98596.75;5019342;28;20415;-58
2023/02/21 04:42:14;;;;;;;;;;;;;;;10.57;77.36;98596.75;5034815;28;19925;-58
2023/02/21 04:44:40;;;;;;;;;;;;;;;10.61;76.52;98598.38;5020972;28;20410;-58
2023/02/21 04:47:05;;;;;;;;;;;;;;;10.57;77.32;98595.91;5034956;28;19975;-59
2023/02/21 04:49:31;;;;;;;;;;;;;;;10.49;78.15;98598.63;5019065;28;19952;-58
2023/02/21 04:51:56;;;;;;;;;;;;;;;10.43;77.86;98596.19;5017451;28;20412;-58
2023/02/21 04:54:22;;;;;;;;;;;;;;;10.48;77.64;98591.81;5020296;28;20415;-58
2023/02/21 04:56:48;;;;;;;;;;;;;;;10.44;77.89;98593.56;5019368;28;19960;-59
2023/02/21 04:59:13;;;;;;;;;;;;;;;10.49;77.35;98599.47;5019465;28;20060;-58
2023/02/21 05:01:39;;;;;;;;;;;;;;;10.38;77.55;98598.84;5019058;28;19924;-58
2023/02/21 05:04:04;;;;;;;;;;;;;;;10.24;80.06;98594.81;5018029;28;20468;-59
2023/02/21 05:06:30;;;;;;;;;;;;;;;10.03;82.26;98588.34;5019134;28;20362;-59
2023/02/21 05:08:56;;;;;;;;;;;;;;;9.89;83.85;98591.13;5025338;28;20267;-60
2023/02/21 05:11:22;;;;;;;;;;;;;;;9.73;85.10;98592.25;5024354;28;19925;-57
2023/02/21 05:13:48;;;;;;;;;;;;;;;9.79;84.27;98592.16;5024618;28;19929;-59
2023/02/21 05:16:13;;;;;;;;;;;;;;;9.90;83.20;98592.81;5023303;28;19972;-59
2023/02/21 05:18:42;;;;;;;;;;;;;;;10.17;81.39;98595.81;5023072;28;19921;-58
2023/02/21 05:21:08;;;;;;;;;;;;;;;10.18;80.20;98597.50;5021158;28;19931;-58
2023/02/21 05:23:34;;;;;;;;;;;;;;;9.94;81.45;98593.63;5039296;28;19925;-59
2023/02/21 05:26:02;;;;;;;;;;;;;;;9.96;82.83;98602.13;5024842;28;19929;-60
2023/02/21 05:28:27;;;;;;;;;;;;;;;9.92;83.33;98590.25;5021155;28;19998;-57
2023/02/21 05:30:53;;;;;;;;;;;;;;;9.89;86.60;98596.25;5025017;28;19929;-57
2023/02/21 05:33:18;;;;;;;;;;;;;;;9.81;87.89;98590.41;5005424;28;19929;-59
2023/02/21 05:35:46;;;;;;;;;;;;;;;10.25;83.69;98570.91;5022718;28;19963;-59
2023/02/21 05:38:12;;;;;;;;;;;;;;;10.54;80.82;98595.09;5000837;28;19934;-58
2023/02/21 05:40:37;;;;;;;;;;;;;;;10.62;80.37;98588.97;5024300;28;19941;-60
2023/02/21 05:43:03;;;;;;;;;;;;;;;10.64;79.37;98593.22;5025811;28;19993;-59
2023/02/21 05:45:28;;;;;;;;;;;;;;;10.66;79.89;98588.03;5035991;28;19925;-60
2023/02/21 05:47:58;;;;;;;;;;;;;;;10.60;80.50;98589.00;5022132;28;20017;-60
2023/02/21 05:50:25;;;;;;;;;;;;;;;10.51;81.36;98584.06;5021363;28;20028;-60
2023/02/21 05:52:50;;;;;;;;;;;;;;;10.46;83.10;98584.16;5020875;28;19925;-59
2023/02/21 05:55:16;;;;;;;;;;;;;;;10.27;83.63;98598.16;5004870;28;20245;-60
2023/02/21 05:57:41;;;;;;;;;;;;;;;10.10;86.44;98608.69;5021131;28;20439;-59
2023/02/21 06:00:07;;;;;;;;;;;;;;;10.16;87.35;98610.34;5018471;28;20027;-59
2023/02/21 06:02:37;;;;;;;;;;;;;;;10.02;88.28;98596.88;5021403;28;19928;-59
2023/02/21 06:05:03;;;;;;;;;;;;;;;9.80;91.09;98609.19;5003188;28;19928;-57
2023/02/21 06:07:28;;;;;;;;;;;;;;;9.72;92.25;98593.13;5021288;28;20498;-58
2023/02/21 06:09:53;;;;;;;;;;;;;;;9.79;92.27;98604.13;5016618;28;20921;-59
2023/02/21 06:12:19;;;;;;;;;;;;;;;9.84;93.83;98610.88;5019005;28;19925;-59
2023/02/21 06:14:44;;;;;;;;;;;;;;;9.68;94.65;98606.00;5021080;28;20574;-59
2023/02/21 06:17:10;;;;;;;;;;;;;;;9.58;96.05;98610.44;5020702;28;19929;-59
2023/02/21 06:19:35;;;;;;;;;;;;;;;9.47;96.91;98608.00;5022243;28;19933;-60
2023/02/21 06:22:01;;;;;;;;;;;;;;;9.48;99.50;98611.44;5019984;28;19929;-58
2023/02/21 06:24:26;;;;;;;;;;;;;;;9.54;98.87;98606.22;5020863;28;19929;-61
2023/02/21 06:26:52;;;;;;;;;;;;;;;9.40;100.00;98614.09;5017577;28;20311;-60
2023/02/21 06:29:17;;;;;;;;;;;;;;;9.36;100.00;98617.56;5017586;28;19935;-60
2023/02/21 06:31:43;;;;;;;;;;;;;;;9.25;100.00;98621.97;5006209;28;19995;-61
2023/02/21 06:34:09;;;;;;;;;;;;;;;9.26;100.00;98627.94;5021370;28;19940;-58
2023/02/21 06:36:34;;;;;;;;;;;;;;;9.43;100.00;98631.97;5022332;28;19983;-59
2023/02/21 06:39:00;;;;;;;;;;;;;;;9.41;100.00;98633.72;5021205;28;20025;-60
2023/02/21 06:41:27;;;;;;;;;;;;;;;9.43;100.00;98633.66;5020229;28;19933;-59
2023/02/21 06:43:54;;;;;;;;;;;;;;;9.27;100.00;98632.19;5020683;28;19929;-60
2023/02/21 06:46:21;;;;;;;;;;;;;;;9.18;100.00;98643.41;5014665;28;19929;-59
2023/02/21 06:48:46;;;;;;;;;;;;;;;9.09;100.00;98646.94;5018114;28;19933;-58
2023/02/21 06:51:13;;;;;;;;;;;;;;;8.98;100.00;98653.91;5016954;28;19976;-59
2023/02/21 06:53:39;;;;;;;;;;;;;;;8.94;100.00;98659.06;5000142;28;19932;-60
2023/02/21 06:56:05;;;;;;;;;;;;;;;8.87;100.00;98657.47;5020808;28;19929;-58
2023/02/21 06:58:30;;;;;;;;;;;;;;;8.78;100.00;98652.44;5018470;28;19964;-58
2023/02/21 07:00:56;;;;;;;;;;;;;;;8.84;100.00;98657.47;5020028;28;20395;-59
2023/02/21 07:03:21;;;;;;;;;;;;;;;8.94;100.00;98659.06;5021393;28;19932;-53
2023/02/21 07:05:46;;;;;;;;;;;;;;;9.15;100.00;98659.66;5019409;28;19940;-57
2023/02/21 07:08:12;;;;;;;;;;;;;;;9.05;100.00;98659.75;5009182;28;19949;-58
2023/02/21 07:10:38;;;;;;;;;;;;;;;9.05;100.00;98667.44;5017613;28;19929;-55
2023/02/21 07:13:04;;;;;;;;;;;;;;;8.96;100.00;98655.59;5001388;28;19935;-55
2023/02/21 07:15:29;;;;;;;;;;;;;;;8.99;100.00;98667.53;5019026;28;19983;-59
2023/02/21 07:17:55;;;;;;;;;;;;;;;9.10;100.00;98666.53;5020757;28;19924;-55
2023/02/21 07:20:20;;;;;;;;;;;;;;;9.17;100.00;98672.41;5020969;28;19929;-56
2023/02/21 07:22:47;;;;;;;;;;;;;;;9.08;100.00;98663.13;5004785;28;19933;-56
2023/02/21 07:25:16;;;;;;;;;;;;;;;9.20;100.00;98666.41;5018757;28;19925;-59
2023/02/21 07:27:41;;;;;;;;;;;;;;;9.27;100.00;98676.53;5017775;28;19978;-56
2023/02/21 07:30:07;;;;;;;;;;;;;;;9.43;100.00;98664.38;5020018;28;19929;-58
2023/02/21 07:32:33;;;;;;;;;;;;;;;9.51;100.00;98665.13;5018641;28;20302;-56
2023/02/21 07:34:58;;;;;;;;;;;;;;;9.51;100.00;98671.06;5020740;28;20445;-55
2023/02/21 07:37:26;;;;;;;;;;;;;;;9.51;100.00;98660.84;5006611;28;20011;-55
2023/02/21 07:39:51;;;;;;;;;;;;;;;9.61;100.00;98664.13;5018368;28;20028;-55
2023/02/21 07:42:17;;;;;;;;;;;;;;;9.64;100.00;98666.63;5019957;28;19930;-59
2023/02/21 07:44:44;;;;;;;;;;;;;;;9.66;100.00;98658.94;5000739;28;20005;-56
2023/02/21 07:47:10;;;;;;;;;;;;;;;9.73;100.00;98663.09;5019205;28;20002;-54
2023/02/21 07:49:40;;;;;;;;;;;;;;;9.85;100.00;98655.22;5021549;28;20155;-56
2023/02/21 07:52:05;;;;;;;;;;;;;;;10.09;100.00;98660.81;5018994;28;19928;-59
2023/02/21 07:54:31;;;;;;;;;;;;;;;10.36;100.00;98671.47;5017730;28;20330;-58
2023/02/21 07:56:56;;;;;;;;;;;;;;;10.59;98.91;98668.50;5017124;28;19932;-58
2023/02/21 07:59:22;;;;;;;;;;;;;;;10.79;97.21;98656.16;5020745;28;19936;-59
2023/02/21 08:01:48;;;;;;;;;;;;;;;11.07;95.20;98669.28;5013173;28;19928;-61
2023/02/21 08:04:14;;;;;;;;;;;;;;;11.22;93.85;98658.69;5001426;28;20266;-59
2023/02/21 08:06:39;;;;;;;;;;;;;;;11.42;91.36;98677.91;5018040;28;20313;-57
2023/02/21 08:09:05;;;;;;;;;;;;;;;11.52;90.00;98658.03;5016367;28;20240;-60
2023/02/21 08:11:32;;;;;;;;;;;;;;;11.58;89.18;98657.91;5014448;28;20323;-59
2023/02/21 08:13:58;;;;;;;;;;;;;;;11.78;85.44;98655.75;5017773;28;19934;-58
2023/02/21 08:16:24;;;;;;;;;;;;;;;12.02;82.49;98661.16;5017727;28;20364;-58
2023/02/21 08:18:50;;;;;;;;;;;;;;;12.09;82.06;98663.56;5018318;28;19925;-59
2023/02/21 08:21:16;;;;;;;;;;;;;;;12.31;79.23;98651.00;5015218;28;19933;-60
2023/02/21 08:23:41;;;;;;;;;;;;;;;12.39;78.59;98650.81;5014475;28;20245;-58
2023/02/21 08:26:07;;;;;;;;;;;;;;;12.51;77.90;98647.94;5017760;28;20257;-59
2023/02/21 08:28:32;;;;;;;;;;;;;;;12.58;74.55;98660.59;5018326;28;19926;-59
2023/02/21 08:30:58;;;;;;;;;;;;;;;12.72;71.65;98663.63;5015181;28;20352;-58
2023/02/21 08:33:23;;;;;;;;;;;;;;;12.85;73.25;98668.44;5016255;28;20401;-59
2023/02/21 08:35:49;;;;;;;;;;;;;;;12.88;71.83;98652.91;5020921;28;20363;-59
2023/02/21 08:38:16;;;;;;;;;;;;;;;12.97;69.26;98657.81;5017883;28;20434;-59
2023/02/21 08:40:41;;;;;;;;;;;;;;;12.90;72.15;98651.16;5017334;28;19925;-59
2023/02/21 08:43:07;;;;;;;;;;;;;;;13.05;69.92;98655.84;5016374;28;19979;-59
2023/02/21 08:45:32;;;;;;;;;;;;;;;13.15;65.56;98653.00;5013489;28;20262;-58
2023/02/21 08:47:58;;;;;;;;;;;;;;;13.24;65.97;98672.47;5017973;28;19968;-59
2023/02/21 08:50:24;;;;;;;;;;;;;;;13.39;66.03;98666.91;5000783;28;19976;-59
2023/02/21 08:52:50;;;;;;;;;;;;;;;13.39;65.24;98659.19;5018369;28;20404;-57
2023/02/21 08:55:16;;;;;;;;;;;;;;;13.36;68.32;98672.16;5014675;28;19937;-59
2023/02/21 08:57:42;;;;;;;;;;;;;;;13.48;68.89;98670.94;5018195;28;19925;-60
2023/02/21 09:00:10;;;;;;;;;;;;;;;13.39;68.61;98666.06;5017399;28;20360;-60
2023/02/21 09:02:40;;;;;;;;;;;;;;;13.50;69.81;98669.13;5019026;28;20718;-60
2023/02/21 09:05:31;;;;;;;;;;;;;;;13.46;69.02;98670.13;5017151;28;19929;-59
2023/02/21 09:08:00;;;;;;;;;;;;;;;13.38;69.70;98670.34;5015629;28;19975;-60
2023/02/21 09:10:26;;;;;;;;;;;;;;;13.36;70.26;98684.19;5019154;28;19932;-59
2023/02/21 09:12:51;;;;;;;;;;;;;;;13.29;70.66;98680.91;5019303;28;19932;-59
2023/02/21 09:15:17;;;;;;;;;;;;;;;13.17;71.04;98692.41;5017497;28;20165;-58
2023/02/21 09:17:43;;;;;;;;;;;;;;;13.11;73.07;98679.72;5017690;28;20363;-58
2023/02/21 09:20:11;;;;;;;;;;;;;;;13.12;72.54;98694.28;5017385;28;19925;-58
2023/02/21 09:22:36;;;;;;;;;;;;;;;13.03;72.55;98683.34;5016560;28;19929;-58
2023/02/21 09:25:02;;;;;;;;;;;;;;;13.08;72.70;98691.78;5015560;28;19925;-59
2023/02/21 09:27:37;;;;;;;;;;;;;;;13.22;73.01;98692.28;5017974;28;19936;-60
2023/02/21 09:30:07;;;;;;;;;;;;;;;13.19;71.92;98690.66;5021061;28;19932;-59
2023/02/21 09:32:32;;;;;;;;;;;;;;;13.25;72.15;98687.06;5016490;28;19925;-60
2023/02/21 09:34:58;;;;;;;;;;;;;;;13.32;73.11;98688.59;5018505;28;19928;-60
2023/02/21 09:37:24;;;;;;;;;;;;;;;13.41;74.20;98693.44;5018162;28;20363;-59
2023/02/21 09:39:50;;;;;;;;;;;;;;;13.46;73.27;98695.88;5019737;28;19925;-59
2023/02/21 09:42:16;;;;;;;;;;;;;;;13.39;73.18;98696.94;5018370;28;20276;-59
2023/02/21 09:44:42;;;;;;;;;;;;;;;13.32;72.50;98698.03;5017083;28;19936;-60
2023/02/21 09:47:13;;;;;;;;;;;;;;;13.42;74.23;98700.28;5017325;28;19925;-66
2023/02/21 09:49:40;;;;;;;;;;;;;;;13.25;72.37;98711.06;5018502;28;19925;-61
2023/02/21 09:52:14;;;;;;;;;;;;;;;13.24;73.31;98696.50;5016845;28;20376;-58
2023/02/21 09:54:43;;;;;;;;;;;;;;;13.41;73.61;98690.84;5020686;28;19925;-60
2023/02/21 09:57:17;;;;;;;;;;;;;;;13.28;73.08;98708.41;5020953;28;20482;-60
2023/02/21 09:59:42;;;;;;;;;;;;;;;13.28;74.65;98694.72;5023064;28;19925;-60
2023/02/21 10:02:08;;;;;;;;;;;;;;;13.37;75.31;98693.56;5021798;28;20411;-60
2023/02/21 10:04:36;;;;;;;;;;;;;;;13.35;75.26;98688.47;5022523;28;20006;-60
2023/02/21 10:07:09;;;;;;;;;;;;;;;13.35;75.07;98690.22;5019784;28;20141;-61
2023/02/21 10:09:46;;;;;;;;;;;;;;;13.35;75.18;98683.34;5022472;28;19925;-60
2023/02/21 10:12:25;;;;;;;;;;;;;;;13.38;74.65;98683.22;5018915;28;20300;-58
2023/02/21 10:15:13;;;;;;;;;;;;;;;13.40;74.62;98702.06;5020175;28;20447;-57
2023/02/21 10:17:52;;;;;;;;;;;;;;;13.30;73.38;98692.91;5017630;28;20011;-58
2023/02/21 10:20:26;;;;;;;;;;;;;;;13.52;74.00;98688.81;5023469;28;19925;-58
2023/02/21 10:22:53;;;;;;;;;;;;;;;13.66;73.39;98689.22;5022959;28;19986;-58
2023/02/21 10:25:22;;;;;;;;;;;;;;;13.77;74.18;98682.91;5024321;28;19994;-63
2023/02/21 10:27:48;;;;;;;;;;;;;;;13.82;71.81;98668.16;5022586;28;20442;-59
2023/02/21 10:30:23;;;;;;;;;;;;;;;13.87;72.32;98671.44;5023558;28;20524;-59
2023/02/21 10:32:48;;;;;;;;;;;;;;;13.88;72.87;98673.09;5020735;28;19932;-60
2023/02/21 10:35:14;;;;;;;;;;;;;;;13.98;71.47;98671.94;5022251;28;30823;-60
2023/02/21 10:37:41;;;;;;;;;;;;;;;13.86;72.30;98662.88;5021932;28;19935;-61
2023/02/21 10:40:13;;;;;;;;;;;;;;;14.01;72.20;98671.81;5023032;28;19925;-60
2023/02/21 10:42:41;;;;;;;;;;;;;;;13.88;71.25;98667.97;5018235;28;20016;-60
2023/02/21 10:45:07;;;;;;;;;;;;;;;14.03;72.62;98664.91;5018489;28;19933;-60
2023/02/21 10:47:51;;;;;;;;;;;;;;;13.91;71.32;98681.63;5022653;28;20031;-59
2023/02/21 10:50:34;;;;;;;;;;;;;;;13.94;70.78;98672.94;5022863;28;19924;-60
2023/02/21 10:52:59;;;;;;;;;;;;;;;13.94;70.13;98662.63;5020563;28;19929;-61
2023/02/21 10:55:25;;;;;;;;;;;;;;;13.96;71.00;98663.44;5019041;28;19983;-61
2023/02/21 10:57:55;;;;;;;;;;;;;;;13.95;71.13;98654.00;5022574;28;19933;-61
2023/02/21 11:00:27;;;;;;;;;;;;;;;14.14;70.62;98647.34;5020384;28;20348;-62
2023/02/21 11:02:56;;;;;;;;;;;;;;;14.22;70.68;98662.56;5019612;28;19925;-61
2023/02/21 11:05:22;;;;;;;;;;;;;;;14.12;69.68;98654.31;5016673;28;19925;-61
2023/02/21 11:08:14;;;;;;;;;;;;;;;14.18;70.06;98647.19;5021558;28;19929;-62
2023/02/21 11:10:43;;;;;;;;;;;;;;;14.14;69.87;98655.06;5017393;28;20261;-61
2023/02/21 11:13:12;;;;;;;;;;;;;;;14.15;70.24;98651.59;5020686;28;20180;-61
2023/02/21 11:15:38;;;;;;;;;;;;;;;14.15;69.37;98649.03;5021361;28;20092;-61
2023/02/21 11:18:15;;;;;;;;;;;;;;;14.14;69.34;98643.03;5020708;28;19933;-61
2023/02/21 11:20:40;;;;;;;;;;;;;;;14.05;69.43;98637.31;5022836;28;19977;-61
2023/02/21 11:23:35;;;;;;;;;;;;;;;14.13;69.11;98633.59;5035245;28;20016;-60
2023/02/21 11:26:08;;;;;;;;;;;;;;;14.10;68.96;98633.72;5007744;28;19964;-62
2023/02/21 11:28:42;;;;;;;;;;;;;;;14.25;68.13;98634.09;5022114;28;19925;-60
2023/02/21 11:31:16;;;;;;;;;;;;;;;14.36;68.61;98621.72;5021874;28;19925;-62
2023/02/21 11:33:50;;;;;;;;;;;;;;;14.38;68.18;98623.38;5021007;28;20063;-59
2023/02/21 11:36:20;;;;;;;;;;;;;;;14.37;67.04;98631.97;5018285;28;19929;-61
2023/02/21 11:39:04;;;;;;;;;;;;;;;14.42;65.71;98619.78;5020661;28;19963;-60
2023/02/21 11:41:50;;;;;;;;;;;;;;;14.38;67.38;98620.78;5018930;28;20459;-62
2023/02/21 11:44:21;;;;;;;;;;;;;;;14.29;66.27;98620.22;5004788;28;19929;-61
2023/02/21 11:46:49;;;;;;;;;;;;;;;14.46;65.63;98618.78;5020717;28;20284;-61
2023/02/21 11:49:31;;;;;;;;;;;;;;;14.57;66.10;98610.66;5003213;28;19932;-62
2023/02/21 11:52:02;;;;;;;;;;;;;;;14.60;65.43;98606.22;5017692;28;20420;-61
2023/02/21 11:54:31;;;;;;;;;;;;;;;14.68;66.52;98611.13;5019963;28;19949;-61
2023/02/21 11:57:11;;;;;;;;;;;;;;;14.69;63.64;98609.34;5018800;28;19979;-60
2023/02/21 11:59:37;;;;;;;;;;;;;;;14.66;62.35;98615.47;5022881;28;20342;-60
2023/02/21 12:02:15;;;;;;;;;;;;;;;14.56;63.52;98609.81;5018085;28;20376;-61
2023/02/21 12:04:40;;;;;;;;;;;;;;;14.56;62.78;98624.44;5018672;28;20350;-62
2023/02/21 12:07:05;;;;;;;;;;;;;;;14.50;63.28;98619.50;5015664;28;19993;-62
2023/02/21 12:09:44;;;;;;;;;;;;;;;14.49;64.40;98612.66;5017562;28;19961;-61
2023/02/21 12:12:17;;;;;;;;;;;;;;;14.47;63.22;98619.63;5000838;28;19925;-62
2023/02/21 12:14:43;;;;;;;;;;;;;;;14.50;63.67;98614.34;5036044;28;19929;-61
2023/02/21 12:17:27;;;;;;;;;;;;;;;14.40;63.26;98605.22;5020297;28;19921;-61
2023/02/21 12:20:02;;;;;;;;;;;;;;;14.43;63.75;98608.53;5020792;28;19975;-62
2023/02/21 12:22:30;;;;;;;;;;;;;;;14.46;64.03;98600.72;5022357;28;19925;-62
2023/02/21 12:25:15;;;;;;;;;;;;;;;14.53;63.61;98599.59;5021505;28;19929;-63
2023/02/21 12:28:21;;;;;;;;;;;;;;;14.56;63.53;98591.75;5017200;28;19959;-62
2023/02/21 12:30:54;;;;;;;;;;;;;;;14.31;63.16;98592.63;4996393;28;19964;-62
2023/02/21 12:33:34;;;;;;;;;;;;;;;14.30;65.26;98593.53;4996840;28;20236;-61
2023/02/21 12:36:19;;;;;;;;;;;;;;;14.32;64.13;98599.47;4995685;28;20052;-62
2023/02/21 12:38:44;;;;;;;;;;;;;;;14.28;66.62;98591.00;4996541;28;20221;-61
2023/02/21 12:41:28;;;;;;;;;;;;;;;14.19;66.72;98591.31;4995835;28;20466;-62
2023/02/21 12:43:59;;;;;;;;;;;;;;;14.25;66.70;98593.69;4995153;28;20411;-62
2023/02/21 12:46:33;;;;;;;;;;;;;;;14.29;66.39;98590.13;4995961;28;19933;-62
2023/02/21 12:49:07;;;;;;;;;;;;;;;14.24;66.09;98583.41;4993810;28;19925;-62
2023/02/21 12:51:37;;;;;;;;;;;;;;;14.40;67.22;98587.19;4995586;28;19925;-62
2023/02/21 12:54:05;;;;;;;;;;;;;;;14.26;65.94;98577.31;4996925;28;19932;-61
2023/02/21 12:56:36;;;;;;;;;;;;;;;14.05;67.50;98586.63;4993719;28;19929;-61
2023/02/21 12:59:21;;;;;;;;;;;;;;;14.08;67.77;98573.66;4993877;28;19933;-62
2023/02/21 13:01:48;;;;;;;;;;;;;;;14.11;66.60;98580.41;5009992;28;19929;-61
2023/02/21 13:04:21;;;;;;;;;;;;;;;14.02;68.95;98598.78;5021203;28;20043;-61
2023/02/21 13:07:10;;;;;;;;;;;;;;;14.11;68.83;98585.56;5017605;28;19929;-60
2023/02/21 13:09:52;;;;;;;;;;;;;;;14.12;67.77;98605.31;5012985;28;19924;-59
2023/02/21 13:12:27;;;;;;;;;;;;;;;14.23;68.55;98574.84;5020024;28;19948;-60
2023/02/21 13:14:55;;;;;;;;;;;;;;;14.29;68.63;98566.06;5017735;28;19934;-61
2023/02/21 13:17:21;;;;;;;;;;;;;;;14.34;67.52;98577.88;5019192;28;19925;-60
2023/02/21 13:19:54;;;;;;;;;;;;;;;14.34;66.69;98575.28;5012714;28;20151;-63
2023/02/21 13:22:38;;;;;;;;;;;;;;;14.36;68.37;98581.28;5017841;28;20424;-60
2023/02/21 13:25:15;;;;;;;;;;;;;;;14.24;67.93;98566.22;5020650;28;19925;-66
2023/02/21 13:27:53;;;;;;;;;;;;;;;14.46;66.21;98559.44;5018064;28;19935;-60
2023/02/21 13:30:37;;;;;;;;;;;;;;;14.43;65.69;98564.69;5022655;28;19926;-62
2023/02/21 13:33:03;;;;;;;;;;;;;;;14.60;64.51;98546.88;5022770;28;20151;-62
2023/02/21 13:35:31;;;;;;;;;;;;;;;14.64;65.05;98561.34;5021289;28;19925;-61
2023/02/21 13:37:57;;;;;;;;;;;;;;;14.62;63.67;98546.81;5021037;28;20399;-63
2023/02/21 13:40:39;;;;;;;;;;;;;;;14.72;64.35;98547.34;5022913;28;20235;-61
2023/02/21 13:43:43;;;;;;;;;;;;;;;14.88;61.28;98543.28;5023363;28;20040;-62
2023/02/21 13:46:43;;;;;;;;;;;;;;;15.03;60.84;98540.94;4966917;28;20825;-64
2023/02/21 13:49:27;;;;;;;;;;;;;;;15.10;62.04;98536.41;4970186;28;20436;-63
2023/02/21 13:52:12;;;;;;;;;;;;;;;15.03;60.10;98546.13;4974087;28;19933;-66
2023/02/21 13:54:57;;;;;;;;;;;;;;;15.06;61.34;98533.06;4974702;28;19933;-63
2023/02/21 13:57:33;;;;;;;;;;;;;;;15.01;59.85;98534.19;4956452;28;19925;-63
2023/02/21 13:59:58;;;;;;;;;;;;;;;15.04;59.24;98532.31;4977614;28;19961;-67
2023/02/21 14:02:31;;;;;;;;;;;;;;;15.09;60.37;98537.31;4974178;28;20050;-63
2023/02/21 14:05:00;;;;;;;;;;;;;;;15.05;59.77;98540.91;4971790;28;19952;-61
2023/02/21 14:07:44;;;;;;;;;;;;;;;15.05;63.98;98541.75;4962655;28;19930;-61
2023/02/21 14:10:16;;;;;;;;;;;;;;;15.05;63.52;98540.91;4957195;28;20056;-64
2023/02/21 14:12:50;;;;;;;;;;;;;;;15.09;63.16;98532.13;4967616;28;20016;-59
2023/02/21 14:15:16;;;;;;;;;;;;;;;15.15;63.02;98537.03;4967000;28;19926;-61
2023/02/21 14:17:45;;;;;;;;;;;;;;;15.13;64.95;98523.38;4999406;28;19921;-62
2023/02/21 14:20:15;;;;;;;;;;;;;;;15.16;64.40;98537.88;5006115;28;19925;-60
2023/02/21 14:22:41;;;;;;;;;;;;;;;14.99;65.42;98538.53;5005666;28;20527;-64
2023/02/21 14:25:15;;;;;;;;;;;;;;;14.88;65.92;98538.97;5005003;28;20070;-64
2023/02/21 14:27:40;;;;;;;;;;;;;;;14.82;64.84;98546.06;5006620;28;19925;-62
2023/02/21 14:30:11;;;;;;;;;;;;;;;14.79;66.31;98543.63;5007036;28;20059;-63
2023/02/21 14:32:37;;;;;;;;;;;;;;;14.76;67.34;98544.59;5001903;28;19980;-63
2023/02/21 14:35:19;;;;;;;;;;;;;;;14.73;67.38;98546.41;5002825;28;20363;-63
2023/02/21 14:38:03;;;;;;;;;;;;;;;14.72;68.62;98557.66;5008320;28;20857;-62
2023/02/21 14:40:34;;;;;;;;;;;;;;;14.68;68.83;98546.63;5003651;28;20273;-63
2023/02/21 14:43:01;;;;;;;;;;;;;;;14.62;70.07;98554.56;5020405;28;19957;-63
2023/02/21 14:45:26;;;;;;;;;;;;;;;14.57;70.06;98556.47;5008067;28;20089;-61
2023/02/21 14:47:55;;;;;;;;;;;;;;;14.47;70.90;98545.63;5007403;28;19932;-65
2023/02/21 14:50:42;;;;;;;;;;;;;;;14.44;71.57;98550.91;5007724;28;19925;-61
2023/02/21 14:53:26;;;;;;;;;;;;;;;14.36;72.84;98544.34;5012330;28;20456;-62
2023/02/21 14:56:02;;;;;;;;;;;;;;;14.33;73.71;98565.91;5009246;28;19932;-61
2023/02/21 14:58:27;;;;;;;;;;;;;;;14.34;74.66;98561.59;5019015;28;19925;-63
2023/02/21 15:00:59;;;;;;;;;;;;;;;14.26;75.50;98545.53;5003279;28;19936;-60
2023/02/21 15:03:28;;;;;;;;;;;;;;;14.21;76.67;98550.00;4990141;28;19932;-62
2023/02/21 15:06:02;;;;;;;;;;;;;;;14.23;76.15;98559.38;5005523;28;20250;-63
2023/02/21 15:08:37;;;;;;;;;;;;;;;14.18;76.24;98550.94;5006705;28;19925;-61
2023/02/21 15:11:13;;;;;;;;;;;;;;;14.15;77.78;98551.06;5007085;28;19936;-61
2023/02/21 15:13:38;;;;;;;;;;;;;;;14.18;77.56;98548.38;5020484;28;19929;-62
2023/02/21 15:16:05;;;;;;;;;;;;;;;14.18;78.46;98550.94;5019244;28;19979;-62
2023/02/21 15:18:32;;;;;;;;;;;;;;;14.15;77.06;98551.06;5020664;28;19925;-62